Accueil
METAR-TAF:

METAR-TAF

Aéroports :

Sinop, Turquie

latitude: 42-00-57N, longitude: 035-03-59E, altitude: 7 m

Observation

Le bulletin a été fait il y a 1 heure et 52 minutes, à 17:50 UTC
Vent calme
Température 9°C
Humidité 87%
Pression 1023 hPa
Visibilité 10 km ou plus
Quelques nuages à une hauteur de 1500 ft
Nuages fragmentés à une hauteur de 10000 ft

METAR: LTCM 201750Z 00000KT 9999 FEW015 BKN100 09/07 Q1023

Heure: 22:42 (19:42 UTC)

Prévision

Le bulletin a été fait il y a 3 heures et 2 minutes, à 16:40 UTC
Prévision valable du 20 à 18 UTC au 21 à 03 UTC
Vent 2 kt de direction variable
Visibilité: 6000 m
Quelques nuages à une hauteur de 1800 ft
Nuages épars à une hauteur de 10000 ft

TAF: LTCM 201640Z 2018/2103 VRB02KT 6000 FEW018 SCT100

Observations et prévisions météorologiques de plus de 4000 aéroports (messages METAR et TAF).

Les stations disponibles sont représentées par des disques jaunes et rouges sur la carte.

Passer la souris dessus pour voir le nom de la station.

Cliquer dessus pour voir les observations et prévisions météorologiques.

Pour changer de carte: cliquez sur les boutons verts avec une croix noire pour zoomer, sur le bouton vert avec un tiret pour effectuer un zoom arrière, ou sur les flèches vertes pour les cartes adjacentes.


METAR-TAF: